createdAt,value
2023-09-06T00:01:46.193Z,101835.81
2023-09-06T00:04:12.933Z,101835.84
2023-09-06T00:06:39.612Z,101838.59
2023-09-06T00:09:06.178Z,101834.41
2023-09-06T00:11:33.222Z,101837.19
2023-09-06T00:13:59.676Z,101838.13
2023-09-06T00:16:26.301Z,101834.69
2023-09-06T00:18:52.853Z,101829.44
2023-09-06T00:21:19.411Z,101824.16
2023-09-06T00:23:45.878Z,101827.78
2023-09-06T00:26:12.362Z,101821.56
2023-09-06T00:28:41.373Z,101822.63
2023-09-06T00:31:07.909Z,101825.38
2023-09-06T00:33:36.646Z,101823.66
2023-09-06T00:36:05.290Z,101824.63
2023-09-06T00:38:32.148Z,101821.97
2023-09-06T00:40:59.088Z,101819.41
2023-09-06T00:43:25.488Z,101817.72
2023-09-06T00:45:52.852Z,101822.22
2023-09-06T00:48:22.755Z,101818.78
2023-09-06T00:50:53.807Z,101823.25
2023-09-06T00:53:22.515Z,101820.59
2023-09-06T00:55:50.210Z,101826.03
2023-09-06T00:58:21.375Z,101822.50
2023-09-06T01:00:50.133Z,101824.41
2023-09-06T01:03:18.393Z,101827.13
2023-09-06T01:05:52.394Z,101817.44
2023-09-06T01:08:22.616Z,101816.66
2023-09-06T01:10:51.557Z,101819.31
2023-09-06T01:13:19.066Z,101814.06
2023-09-06T01:15:49.963Z,101817.69
2023-09-06T01:18:17.483Z,101824.84
2023-09-06T01:20:54.927Z,101819.50
2023-09-06T01:23:39.941Z,101818.63
2023-09-06T01:26:07.082Z,101814.41
2023-09-06T01:28:34.862Z,101813.50
2023-09-06T01:31:02.358Z,101818.09
2023-09-06T01:33:30.075Z,101822.69
2023-09-06T01:35:56.715Z,101816.53
2023-09-06T01:38:23.525Z,101823.84
2023-09-06T01:40:49.980Z,101827.50
2023-09-06T01:43:16.519Z,101812.59
2023-09-06T01:45:52.157Z,101820.47
2023-09-06T01:48:20.100Z,101818.69
2023-09-06T01:50:47.043Z,101821.34
2023-09-06T01:53:14.758Z,101820.41
2023-09-06T01:55:44.808Z,101815.09
2023-09-06T01:58:12.642Z,101820.41
2023-09-06T02:00:39.611Z,101814.19
2023-09-06T02:03:15.202Z,101824.88
2023-09-06T02:05:41.856Z,101827.56
2023-09-06T02:08:08.701Z,101826.69
2023-09-06T02:10:35.234Z,101832.91
2023-09-06T02:13:01.738Z,101830.31
2023-09-06T02:15:30.596Z,101831.25
2023-09-06T02:17:58.026Z,101825.13
2023-09-06T02:20:29.028Z,101826.16
2023-09-06T02:22:59.084Z,101826.38
2023-09-06T02:25:32.110Z,101827.41
2023-09-06T02:28:04.463Z,101829.19
2023-09-06T02:30:31.582Z,101842.56
2023-09-06T02:32:58.168Z,101831.94
2023-09-06T02:35:24.688Z,101834.59
2023-09-06T02:37:51.310Z,101830.22
2023-09-06T02:40:19.570Z,101835.50
2023-09-06T02:42:46.201Z,101830.22
2023-09-06T02:45:13.305Z,101840.97
2023-09-06T02:47:49.465Z,101844.63
2023-09-06T02:50:24.697Z,101849.16
2023-09-06T02:52:55.037Z,101850.97
2023-09-06T02:55:25.320Z,101850.13
2023-09-06T02:57:52.632Z,101858.19
2023-09-06T03:00:22.004Z,101854.66
2023-09-06T03:02:48.707Z,101864.53
2023-09-06T03:05:18.717Z,101856.59
2023-09-06T03:07:55.053Z,101858.41
2023-09-06T03:10:24.248Z,101842.59
2023-09-06T03:12:58.374Z,101852.28
2023-09-06T03:15:28.452Z,101858.53
2023-09-06T03:18:03.053Z,101850.59
2023-09-06T03:20:33.615Z,101856.84
2023-09-06T03:23:18.329Z,101852.44
2023-09-06T03:25:46.925Z,101857.88
2023-09-06T03:28:13.799Z,101861.47
2023-09-06T03:30:40.485Z,101862.41
2023-09-06T03:33:07.790Z,101860.69
2023-09-06T03:35:34.704Z,101866.94
2023-09-06T03:38:01.698Z,101866.13
2023-09-06T03:40:37.377Z,101864.41
2023-09-06T03:43:18.614Z,101868.03
2023-09-06T03:45:46.674Z,101875.19
2023-09-06T03:48:18.811Z,101873.50
2023-09-06T03:50:47.222Z,101867.31
2023-09-06T03:53:15.792Z,101866.41
2023-09-06T03:55:45.193Z,101869.06
2023-09-06T03:58:12.053Z,101872.66
2023-09-06T04:00:43.218Z,101870.00
2023-09-06T04:03:09.999Z,101855.09
2023-09-06T04:05:36.672Z,101867.44
2023-09-06T04:08:08.308Z,101871.09
2023-09-06T04:10:37.824Z,101871.16
2023-09-06T04:13:05.408Z,101870.28
2023-09-06T04:15:35.742Z,101870.34
2023-09-06T04:18:04.188Z,101869.53
2023-09-06T04:20:32.854Z,101870.50
2023-09-06T04:23:00.563Z,101882.91
2023-09-06T04:25:28.272Z,101877.63
2023-09-06T04:27:55.969Z,101873.19
2023-09-06T04:30:24.245Z,101877.69
2023-09-06T04:32:52.308Z,101881.22
2023-09-06T04:35:19.163Z,101873.22
2023-09-06T04:37:46.172Z,101860.91
2023-09-06T04:40:13.998Z,101870.59
2023-09-06T04:42:42.127Z,101867.94
2023-09-06T04:45:11.052Z,101876.91
2023-09-06T04:47:40.983Z,101887.63
2023-09-06T04:50:08.586Z,101879.69
2023-09-06T04:52:48.651Z,101885.94
2023-09-06T04:55:16.063Z,101885.94
2023-09-06T04:57:43.143Z,101885.06
2023-09-06T05:00:25.025Z,101893.09
2023-09-06T05:02:55.359Z,101895.81
2023-09-06T05:05:25.058Z,101900.31
2023-09-06T05:07:52.385Z,101893.25
2023-09-06T05:10:19.382Z,101904.78
2023-09-06T05:12:47.123Z,101902.16
2023-09-06T05:15:14.577Z,101901.25
2023-09-06T05:17:41.673Z,101903.03
2023-09-06T05:20:43.977Z,101912.78
2023-09-06T05:23:15.142Z,101903.09
2023-09-06T05:25:42.887Z,101912.81
2023-09-06T05:28:13.740Z,101902.28
2023-09-06T05:30:45.044Z,101913.69
2023-09-06T05:33:12.350Z,101909.25
2023-09-06T05:35:39.008Z,101916.31
2023-09-06T05:38:05.662Z,101915.44
2023-09-06T05:40:34.622Z,101916.31
2023-09-06T05:43:01.498Z,101922.53
2023-09-06T05:45:28.278Z,101922.47
2023-09-06T05:47:55.088Z,101923.34
2023-09-06T05:50:21.926Z,101928.72
2023-09-06T05:52:48.510Z,101926.91
2023-09-06T05:55:15.756Z,101935.75
2023-09-06T05:57:42.351Z,101940.16
2023-09-06T06:00:19.044Z,101932.13
2023-09-06T06:02:46.608Z,101932.94
2023-09-06T06:05:13.367Z,101930.19
2023-09-06T06:07:40.643Z,101925.69
2023-09-06T06:10:10.889Z,101928.28
2023-09-06T06:12:41.580Z,101929.72
2023-09-06T06:15:15.677Z,101941.19
2023-09-06T06:17:43.496Z,101937.03
2023-09-06T06:20:14.644Z,101927.16
2023-09-06T06:22:41.734Z,101932.38
2023-09-06T06:25:09.941Z,101927.91
2023-09-06T06:27:38.493Z,101926.84
2023-09-06T06:30:12.394Z,101924.84
2023-09-06T06:32:39.413Z,101923.81
2023-09-06T06:35:07.700Z,101926.81
2023-09-06T06:37:34.850Z,101928.38
2023-09-06T06:40:01.470Z,101930.09
2023-09-06T06:42:30.469Z,101936.22
2023-09-06T06:44:56.993Z,101937.84
2023-09-06T06:47:23.679Z,101936.69
2023-09-06T06:49:56.013Z,101935.63
2023-09-06T06:52:22.797Z,101939.88
2023-09-06T06:54:49.328Z,101941.47
2023-09-06T06:57:15.930Z,101942.28
2023-09-06T06:59:42.498Z,101946.88
2023-09-06T07:02:10.166Z,101953.91
2023-09-06T07:04:36.668Z,101953.72
2023-09-06T07:07:03.548Z,101960.06
2023-09-06T07:09:30.029Z,101962.63
2023-09-06T07:11:56.599Z,101960.50
2023-09-06T07:14:23.249Z,101963.72
2023-09-06T07:16:49.934Z,101960.59
2023-09-06T07:19:16.731Z,101951.91
2023-09-06T07:21:44.132Z,101961.72
2023-09-06T07:24:11.167Z,101954.13
2023-09-06T07:26:37.850Z,101952.19
2023-09-06T07:29:04.461Z,101966.09
2023-09-06T07:31:31.263Z,101950.75
2023-09-06T07:33:57.892Z,101962.94
2023-09-06T07:36:24.587Z,101958.38
2023-09-06T07:38:55.929Z,101964.47
2023-09-06T07:41:23.300Z,101965.81
2023-09-06T07:43:50.000Z,101967.78
2023-09-06T07:46:16.661Z,101962.47
2023-09-06T07:48:43.522Z,101966.78
2023-09-06T07:51:10.093Z,101974.06
2023-09-06T07:53:36.718Z,101971.34
2023-09-06T07:56:03.367Z,101971.13
2023-09-06T07:58:31.294Z,101969.75
2023-09-06T08:01:15.047Z,101979.13
2023-09-06T08:03:44.284Z,101977.44
2023-09-06T08:06:10.944Z,101975.91
2023-09-06T08:08:37.434Z,101983.25
2023-09-06T08:11:05.378Z,101978.63
2023-09-06T08:13:31.915Z,101977.09
2023-09-06T08:15:58.782Z,101979.88
2023-09-06T08:18:25.464Z,101987.38
2023-09-06T08:20:52.684Z,101988.72
2023-09-06T08:23:19.146Z,101984.41
2023-09-06T08:25:47.189Z,101977.03
2023-09-06T08:28:16.354Z,101987.72
2023-09-06T08:30:45.409Z,101985.97
2023-09-06T08:33:12.351Z,101995.41
2023-09-06T08:35:39.108Z,101993.69
2023-09-06T08:38:05.891Z,101986.16
2023-09-06T08:40:32.551Z,101990.53
2023-09-06T08:43:04.197Z,101980.09
2023-09-06T08:45:31.758Z,101982.69
2023-09-06T08:47:59.155Z,101980.97
2023-09-06T08:50:26.845Z,101981.25
2023-09-06T08:52:55.151Z,101981.84
2023-09-06T08:55:22.204Z,101979.84
2023-09-06T08:57:49.402Z,101979.34
2023-09-06T09:00:16.230Z,101984.09
2023-09-06T09:02:47.560Z,101991.28
2023-09-06T09:05:21.235Z,101989.72
2023-09-06T09:08:01.647Z,101985.38
2023-09-06T09:10:32.948Z,101980.63
2023-09-06T09:13:02.460Z,101983.09
2023-09-06T09:15:35.344Z,101977.63
2023-09-06T09:18:12.980Z,101980.41
2023-09-06T09:20:44.775Z,101976.72
2023-09-06T09:23:17.583Z,101981.78
2023-09-06T09:25:51.142Z,101988.13
2023-09-06T09:28:18.241Z,101981.41
2023-09-06T09:30:47.550Z,101985.59
2023-09-06T09:33:14.277Z,101990.56
2023-09-06T09:35:41.795Z,101986.69
2023-09-06T09:38:14.109Z,101977.88
2023-09-06T09:43:10.287Z,101987.72
2023-09-06T09:45:55.438Z,101980.78
2023-09-06T09:48:31.506Z,101984.09
2023-09-06T09:51:04.537Z,101986.06
2023-09-06T09:53:33.027Z,101980.84
2023-09-06T09:56:07.313Z,101984.44
2023-09-06T09:58:37.556Z,101981.09
2023-09-06T10:01:09.567Z,101963.03
2023-09-06T10:03:40.261Z,101975.41
2023-09-06T10:06:07.348Z,101982.03
2023-09-06T10:08:36.467Z,101979.91
2023-09-06T10:11:07.142Z,101978.34
2023-09-06T10:13:37.259Z,101970.22
2023-09-06T10:16:05.314Z,101968.78
2023-09-06T10:18:32.438Z,101970.69
2023-09-06T10:21:00.720Z,101976.75
2023-09-06T10:23:31.875Z,101977.50
2023-09-06T10:26:01.725Z,101968.41
2023-09-06T10:28:33.354Z,101969.41
2023-09-06T10:31:09.182Z,101962.94
2023-09-06T10:33:41.886Z,101962.72
2023-09-06T10:36:10.880Z,101965.88
2023-09-06T10:39:11.459Z,101963.91
2023-09-06T10:41:37.990Z,101964.06
2023-09-06T10:44:06.227Z,101959.97
2023-09-06T10:46:37.357Z,101958.94
2023-09-06T10:49:30.147Z,101960.75
2023-09-06T10:52:04.855Z,101959.91
2023-09-06T10:54:45.054Z,101961.00
2023-09-06T10:57:13.745Z,101955.78
2023-09-06T10:59:43.672Z,101956.06
2023-09-06T11:02:22.985Z,101951.91
2023-09-06T11:05:03.712Z,101954.81
2023-09-06T11:07:48.146Z,101951.47
2023-09-06T11:10:21.775Z,101942.91
2023-09-06T11:12:48.408Z,101946.13
2023-09-06T11:15:14.923Z,101949.56
2023-09-06T11:17:41.509Z,101948.56
2023-09-06T11:20:16.142Z,101947.13
2023-09-06T11:22:54.089Z,101940.19
2023-09-06T11:25:22.913Z,101943.41
2023-09-06T11:27:51.347Z,101942.94
2023-09-06T11:30:25.124Z,101942.94
2023-09-06T11:32:53.112Z,101939.75
2023-09-06T11:35:25.517Z,101942.50
2023-09-06T11:37:54.008Z,101945.25
2023-09-06T11:40:22.356Z,101937.00
2023-09-06T11:42:53.713Z,101938.00
2023-09-06T11:45:26.097Z,101939.16
2023-09-06T11:47:58.532Z,101935.97
2023-09-06T11:50:25.320Z,101935.28
2023-09-06T11:52:58.482Z,101940.88
2023-09-06T11:55:27.881Z,101933.22
2023-09-06T11:57:58.580Z,101937.44
2023-09-06T12:00:37.280Z,101935.38
2023-09-06T12:03:10.618Z,101935.38
2023-09-06T12:05:48.081Z,101935.59
2023-09-06T12:08:24.604Z,101933.97
2023-09-06T12:11:06.493Z,101933.72
2023-09-06T12:13:38.366Z,101929.50
2023-09-06T12:16:10.247Z,101939.88
2023-09-06T12:18:38.256Z,101924.69
2023-09-06T12:21:06.259Z,101932.22
2023-09-06T12:23:37.324Z,101928.13
2023-09-06T12:26:05.205Z,101931.88
2023-09-06T12:28:34.471Z,101922.50
2023-09-06T12:31:16.488Z,101922.09
2023-09-06T12:33:47.056Z,101924.88
2023-09-06T12:36:15.153Z,101916.75
2023-09-06T12:38:41.640Z,101915.75
2023-09-06T12:41:08.197Z,101913.66
2023-09-06T12:43:36.760Z,101907.88
2023-09-06T12:46:07.541Z,101915.66
2023-09-06T12:48:35.734Z,101904.75
2023-09-06T12:51:02.803Z,101904.16
2023-09-06T12:53:29.310Z,101894.72
2023-09-06T12:55:55.756Z,101891.75
2023-09-06T12:58:22.219Z,101891.25
2023-09-06T13:00:48.740Z,101893.72
2023-09-06T13:03:15.530Z,101892.72
2023-09-06T13:05:43.086Z,101885.78
2023-09-06T13:08:09.809Z,101894.31
2023-09-06T13:10:36.426Z,101888.97
2023-09-06T13:13:03.190Z,101899.59
2023-09-06T13:15:29.675Z,101900.88
2023-09-06T13:17:56.322Z,101901.88
2023-09-06T13:20:22.831Z,101900.00
2023-09-06T13:22:49.305Z,101901.19
2023-09-06T13:25:15.857Z,101891.66
2023-09-06T13:27:44.272Z,101898.53
2023-09-06T13:30:11.559Z,101897.03
2023-09-06T13:32:38.797Z,101905.41
2023-09-06T13:35:06.258Z,101904.56
2023-09-06T13:37:35.676Z,101896.44
2023-09-06T13:40:02.391Z,101896.44
2023-09-06T13:42:29.479Z,101901.88
2023-09-06T13:44:56.463Z,101893.81
2023-09-06T13:47:23.921Z,101888.16
2023-09-06T13:49:51.682Z,101888.31
2023-09-06T13:52:18.642Z,101882.38
2023-09-06T13:54:45.252Z,101876.13
2023-09-06T13:57:11.697Z,101885.19
2023-09-06T13:59:38.377Z,101882.44
2023-09-06T14:02:05.833Z,101879.53
2023-09-06T14:04:32.397Z,101883.50
2023-09-06T14:06:59.047Z,101878.63
2023-09-06T14:09:25.583Z,101874.50
2023-09-06T14:11:53.687Z,101877.53
2023-09-06T14:14:21.803Z,101880.53
2023-09-06T14:16:48.329Z,101879.25
2023-09-06T14:19:14.848Z,101882.84
2023-09-06T14:21:46.681Z,101880.56
2023-09-06T14:24:16.914Z,101883.16
2023-09-06T14:26:46.405Z,101885.03
2023-09-06T14:29:13.565Z,101886.84
2023-09-06T14:31:40.791Z,101887.72
2023-09-06T14:34:07.523Z,101882.75
2023-09-06T14:36:34.827Z,101878.19
2023-09-06T14:39:02.476Z,101883.94
2023-09-06T14:41:30.575Z,101885.66
2023-09-06T14:43:59.958Z,101877.59
2023-09-06T14:46:26.624Z,101878.38
2023-09-06T14:48:53.448Z,101872.41
2023-09-06T14:51:21.229Z,101873.28
2023-09-06T14:53:47.827Z,101870.06
2023-09-06T14:56:16.353Z,101869.94
2023-09-06T14:58:43.985Z,101871.69
2023-09-06T15:01:10.719Z,101872.94
2023-09-06T15:03:39.308Z,101874.94
2023-09-06T15:06:08.222Z,101876.69
2023-09-06T15:08:35.387Z,101874.47
2023-09-06T15:11:02.304Z,101871.72
2023-09-06T15:13:28.974Z,101877.16
2023-09-06T15:15:56.055Z,101870.44
2023-09-06T15:18:22.913Z,101875.16
2023-09-06T15:20:49.702Z,101872.78
2023-09-06T15:23:16.465Z,101876.00
2023-09-06T15:25:45.438Z,101874.16
2023-09-06T15:28:12.358Z,101869.94
2023-09-06T15:30:39.163Z,101871.13
2023-09-06T15:33:06.040Z,101864.88
2023-09-06T15:35:32.764Z,101860.63
2023-09-06T15:38:04.818Z,101861.88
2023-09-06T15:40:32.583Z,101861.63
2023-09-06T15:42:59.078Z,101864.94
2023-09-06T15:45:26.276Z,101860.69
2023-09-06T15:47:56.778Z,101865.47
2023-09-06T15:50:25.085Z,101856.28
2023-09-06T15:52:51.857Z,101855.69
2023-09-06T15:55:18.621Z,101852.09
2023-09-06T15:57:46.132Z,101857.88
2023-09-06T16:00:28.761Z,101855.63
2023-09-06T16:02:58.866Z,101862.88
2023-09-06T16:05:27.104Z,101862.34
2023-09-06T16:07:57.039Z,101859.09
2023-09-06T16:10:26.933Z,101852.78
2023-09-06T16:12:54.236Z,101858.09
2023-09-06T16:15:22.999Z,101861.13
2023-09-06T16:17:50.136Z,101856.16
2023-09-06T16:20:16.870Z,101857.34
2023-09-06T16:22:43.522Z,101861.72
2023-09-06T16:25:11.412Z,101855.88
2023-09-06T16:27:38.260Z,101865.66
2023-09-06T16:30:07.232Z,101863.59
2023-09-06T16:32:34.166Z,101867.16
2023-09-06T16:35:08.352Z,101862.50
2023-09-06T16:37:35.803Z,101865.22
2023-09-06T16:40:02.634Z,101864.97
2023-09-06T16:42:29.079Z,101862.38
2023-09-06T16:44:55.645Z,101859.22
2023-09-06T16:47:22.273Z,101860.22
2023-09-06T16:49:49.724Z,101860.41
2023-09-06T16:52:16.331Z,101857.94
2023-09-06T16:54:42.788Z,101857.94
2023-09-06T16:57:09.809Z,101857.94
2023-09-06T16:59:36.232Z,101859.16
2023-09-06T17:02:02.726Z,101855.56
2023-09-06T17:04:29.378Z,101854.09
2023-09-06T17:06:56.027Z,101853.34
2023-09-06T17:09:22.566Z,101848.09
2023-09-06T17:11:49.044Z,101848.47
2023-09-06T17:14:15.528Z,101857.81
2023-09-06T17:16:42.369Z,101856.41
2023-09-06T17:19:12.152Z,101849.56
2023-09-06T17:21:40.321Z,101860.66
2023-09-06T17:24:08.452Z,101860.34
2023-09-06T17:26:39.603Z,101864.38
2023-09-06T17:29:11.558Z,101853.09
2023-09-06T17:31:38.170Z,101854.38
2023-09-06T17:34:06.841Z,101855.81
2023-09-06T17:36:35.633Z,101856.34
2023-09-06T17:39:03.865Z,101853.06
2023-09-06T17:41:30.375Z,101866.22
2023-09-06T17:43:56.907Z,101855.84
2023-09-06T17:46:26.524Z,101865.50
2023-09-06T17:48:56.572Z,101865.22
2023-09-06T17:51:23.921Z,101864.13
2023-09-06T17:53:51.735Z,101863.00
2023-09-06T17:56:20.838Z,101860.88
2023-09-06T17:58:50.632Z,101861.50
2023-09-06T18:01:17.854Z,101861.13
2023-09-06T18:03:46.605Z,101861.88
2023-09-06T18:06:15.923Z,101859.84
2023-09-06T18:08:44.008Z,101867.91
2023-09-06T18:11:12.470Z,101859.66
2023-09-06T18:13:41.462Z,101865.66
2023-09-06T18:16:12.728Z,101861.84
2023-09-06T18:18:40.395Z,101871.91
2023-09-06T18:21:10.801Z,101879.84
2023-09-06T18:23:38.808Z,101881.28
2023-09-06T18:26:06.295Z,101875.69
2023-09-06T18:28:33.343Z,101873.63
2023-09-06T18:31:00.617Z,101872.31
2023-09-06T18:33:27.362Z,101881.00
2023-09-06T18:35:56.276Z,101881.50
2023-09-06T18:38:24.183Z,101882.94
2023-09-06T18:40:53.685Z,101881.84
2023-09-06T18:43:22.071Z,101885.78
2023-09-06T18:45:48.667Z,101888.94
2023-09-06T18:48:17.416Z,101896.53
2023-09-06T18:50:46.922Z,101897.66
2023-09-06T18:53:14.625Z,101902.63
2023-09-06T18:55:44.366Z,101904.91
2023-09-06T18:58:12.391Z,101899.97
2023-09-06T19:00:40.521Z,101903.97
2023-09-06T19:03:12.643Z,101910.66
2023-09-06T19:05:40.870Z,101911.06
2023-09-06T19:08:12.944Z,101914.28
2023-09-06T19:10:41.408Z,101915.38
2023-09-06T19:13:09.094Z,101907.66
2023-09-06T19:15:35.929Z,101921.53
2023-09-06T19:18:03.783Z,101923.66
2023-09-06T19:20:30.299Z,101924.03
2023-09-06T19:22:56.932Z,101933.44
2023-09-06T19:25:26.790Z,101933.81
2023-09-06T19:27:53.540Z,101922.69
2023-09-06T19:30:20.317Z,101923.72
2023-09-06T19:32:49.903Z,101930.22
2023-09-06T19:35:16.478Z,101924.97
2023-09-06T19:37:45.687Z,101935.19
2023-09-06T19:40:12.384Z,101933.75
2023-09-06T19:42:39.394Z,101930.63
2023-09-06T19:45:06.504Z,101927.41
2023-09-06T19:47:33.313Z,101928.47
2023-09-06T19:50:00.308Z,101929.44
2023-09-06T19:52:26.843Z,101934.03
2023-09-06T19:55:01.418Z,101930.69
2023-09-06T19:57:30.945Z,101931.69
2023-09-06T19:59:58.643Z,101924.91
2023-09-06T20:02:25.628Z,101930.03
2023-09-06T20:04:52.588Z,101925.94
2023-09-06T20:07:19.361Z,101929.06
2023-09-06T20:09:45.990Z,101932.00
2023-09-06T20:12:12.463Z,101933.38
2023-09-06T20:14:38.950Z,101935.41
2023-09-06T20:17:05.501Z,101928.41
2023-09-06T20:19:32.349Z,101934.06
2023-09-06T20:21:58.999Z,101919.91
2023-09-06T20:24:25.541Z,101925.53
2023-09-06T20:26:54.709Z,101929.44
2023-09-06T20:29:28.836Z,101930.59
2023-09-06T20:31:56.827Z,101934.47
2023-09-06T20:34:23.831Z,101934.59
2023-09-06T20:36:50.783Z,101935.66
2023-09-06T20:39:17.430Z,101937.75
2023-09-06T20:41:44.069Z,101939.72
2023-09-06T20:44:12.136Z,101941.59
2023-09-06T20:46:38.844Z,101937.47
2023-09-06T20:49:05.534Z,101944.94
2023-09-06T20:51:32.033Z,101940.84
2023-09-06T20:54:00.968Z,101948.50
2023-09-06T20:56:27.534Z,101944.50
2023-09-06T20:58:54.004Z,101941.28
2023-09-06T21:01:21.031Z,101940.72
2023-09-06T21:03:48.396Z,101943.69
2023-09-06T21:06:15.706Z,101941.19
2023-09-06T21:08:42.595Z,101953.13
2023-09-06T21:11:09.719Z,101948.03
2023-09-06T21:13:36.192Z,101952.81
2023-09-06T21:16:03.258Z,101953.81
2023-09-06T21:18:31.123Z,101960.28
2023-09-06T21:20:58.432Z,101950.66
2023-09-06T21:23:25.327Z,101955.31
2023-09-06T21:25:51.885Z,101959.97
2023-09-06T21:28:18.497Z,101966.41
2023-09-06T21:30:48.463Z,101963.88
2023-09-06T21:33:16.384Z,101966.63
2023-09-06T21:35:48.853Z,101964.88
2023-09-06T21:38:15.331Z,101965.00
2023-09-06T21:40:44.301Z,101972.34
2023-09-06T21:43:18.384Z,101969.91
2023-09-06T21:45:45.845Z,101965.50
2023-09-06T21:48:12.635Z,101967.41
2023-09-06T21:50:41.337Z,101967.63
2023-09-06T21:53:08.386Z,101962.28
2023-09-06T21:55:35.083Z,101966.06
2023-09-06T21:58:09.695Z,101968.88
2023-09-06T22:00:37.544Z,101966.31
2023-09-06T22:03:04.692Z,101966.25
2023-09-06T22:05:31.350Z,101964.56
2023-09-06T22:07:57.847Z,101964.81
2023-09-06T22:10:24.442Z,101969.44
2023-09-06T22:12:51.040Z,101969.59
2023-09-06T22:15:17.557Z,101968.00
2023-09-06T22:17:44.126Z,101967.13
2023-09-06T22:20:11.036Z,101963.59
2023-09-06T22:22:37.828Z,101964.56
2023-09-06T22:25:06.326Z,101961.91
2023-09-06T22:27:33.200Z,101962.13
2023-09-06T22:29:59.877Z,101966.78
2023-09-06T22:32:26.886Z,101964.31
2023-09-06T22:34:53.805Z,101959.91
2023-09-06T22:37:20.421Z,101965.47
2023-09-06T22:39:56.212Z,101970.19
2023-09-06T22:42:23.320Z,101968.69
2023-09-06T22:44:50.846Z,101973.28
2023-09-06T22:47:17.459Z,101971.47
2023-09-06T22:49:44.122Z,101967.06
2023-09-06T22:52:10.826Z,101961.81
2023-09-06T22:54:40.170Z,101973.41
2023-09-06T22:57:07.835Z,101967.19
2023-09-06T22:59:35.193Z,101969.03
2023-09-06T23:02:02.339Z,101964.69
2023-09-06T23:04:33.217Z,101963.97
2023-09-06T23:07:01.044Z,101960.44
2023-09-06T23:09:27.588Z,101966.69
2023-09-06T23:11:57.374Z,101950.78
2023-09-06T23:14:27.396Z,101956.28
2023-09-06T23:16:54.371Z,101956.44
2023-09-06T23:19:27.862Z,101960.03
2023-09-06T23:21:58.340Z,101961.00
2023-09-06T23:24:26.146Z,101961.09
2023-09-06T23:27:00.886Z,101966.53
2023-09-06T23:29:35.964Z,101964.81
2023-09-06T23:32:05.975Z,101955.91
2023-09-06T23:34:37.179Z,101961.41
2023-09-06T23:37:06.328Z,101965.09
2023-09-06T23:39:34.604Z,101956.25
2023-09-06T23:42:10.913Z,101950.06
2023-09-06T23:44:42.165Z,101957.31
2023-09-06T23:47:09.145Z,101958.28
2023-09-06T23:49:37.257Z,101948.56
2023-09-06T23:52:04.561Z,101944.19
2023-09-06T23:54:44.846Z,101947.94
2023-09-06T23:57:14.233Z,101951.66
2023-09-06T23:59:40.748Z,101950.91
